Harsens Island, Michigan
Current Conditions -  °F | °C
As of 6:58 AM on Monday 22 Dec 2014 (Local Time) from KMTC Reporting Station
Clear Clear  
Wind Chill: 20°   Ceiling: Unl
Heat Index: 28°   Visibility: 10mi
Dew Point: 27°   Wind: 7mph
Humidity: 99%   Direction: 90°E
Pressure: 30.1"   Gusts: NA
Location:  42.6°N, 82.59°W
Report Text: KMTC 221158Z AUTO 09006KT 10SM CLR M02/M03 A3010 RMK AO2 SLP204 T10251027 11004 21025 55006 $
Loading
Personal Weather Stations






























Interactive Weather Map New forecast layout! Learn more

10-Day Weather Forecast

Advertisements
Track Severe Weather on mobile